createdAt,value
2022-07-30T00:00:25.259Z,22.80
2022-07-30T00:02:53.945Z,22.80
2022-07-30T00:05:22.411Z,22.70
2022-07-30T00:07:53.461Z,22.70
2022-07-30T00:10:23.241Z,22.70
2022-07-30T00:12:52.123Z,22.70
2022-07-30T00:15:20.461Z,22.60
2022-07-30T00:17:49.251Z,22.60
2022-07-30T00:20:18.667Z,22.60
2022-07-30T00:22:47.462Z,22.60
2022-07-30T00:25:18.765Z,22.60
2022-07-30T00:27:47.130Z,22.50
2022-07-30T00:30:16.171Z,22.50
2022-07-30T00:32:44.529Z,22.50
2022-07-30T00:35:13.145Z,22.50
2022-07-30T00:37:41.513Z,22.40
2022-07-30T00:40:11.035Z,22.40
2022-07-30T00:42:42.920Z,22.40
2022-07-30T00:45:13.064Z,22.40
2022-07-30T00:47:41.463Z,22.30
2022-07-30T00:50:11.950Z,22.40
2022-07-30T00:52:41.543Z,22.30
2022-07-30T00:55:12.402Z,22.30
2022-07-30T00:57:42.913Z,22.30
2022-07-30T01:00:13.829Z,22.30
2022-07-30T01:02:42.193Z,22.30
2022-07-30T01:05:11.392Z,22.20
2022-07-30T01:07:39.796Z,22.20
2022-07-30T01:10:10.154Z,22.20
2022-07-30T01:12:39.129Z,22.20
2022-07-30T01:15:11.414Z,22.10
2022-07-30T01:17:40.383Z,22.10
2022-07-30T01:20:13.087Z,22.10
2022-07-30T01:22:52.283Z,22.10
2022-07-30T01:25:31.247Z,22.10
2022-07-30T01:28:04.501Z,22.10
2022-07-30T01:30:37.003Z,22.00
2022-07-30T01:33:07.498Z,22.00
2022-07-30T01:35:36.960Z,22.00
2022-07-30T01:38:07.879Z,22.00
2022-07-30T01:40:37.850Z,22.00
2022-07-30T01:43:09.307Z,21.90
2022-07-30T01:45:42.423Z,21.90
2022-07-30T01:48:14.714Z,21.90
2022-07-30T01:50:47.017Z,21.90
2022-07-30T01:53:18.054Z,21.90
2022-07-30T01:55:47.355Z,21.90
2022-07-30T01:58:20.421Z,21.80
2022-07-30T02:00:51.155Z,21.80
2022-07-30T02:03:19.531Z,21.80
2022-07-30T02:05:55.094Z,21.80
2022-07-30T02:08:31.736Z,21.80
2022-07-30T02:11:10.538Z,21.70
2022-07-30T02:13:48.748Z,21.70
2022-07-30T02:16:21.127Z,21.70
2022-07-30T02:18:58.484Z,21.70
2022-07-30T02:21:36.657Z,21.70
2022-07-30T02:24:09.355Z,21.60
2022-07-30T02:26:39.614Z,21.60
2022-07-30T02:29:11.533Z,21.60
2022-07-30T02:31:41.873Z,21.60
2022-07-30T02:34:12.340Z,21.50
2022-07-30T02:36:43.333Z,21.50
2022-07-30T02:39:14.649Z,21.50
2022-07-30T02:41:49.484Z,21.50
2022-07-30T02:44:21.383Z,21.50
2022-07-30T02:46:51.337Z,21.40
2022-07-30T02:49:23.296Z,21.40
2022-07-30T02:51:53.135Z,21.40
2022-07-30T02:54:24.987Z,21.40
2022-07-30T02:56:54.575Z,21.40
2022-07-30T02:59:26.522Z,21.40
2022-07-30T03:01:56.879Z,21.40
2022-07-30T03:04:25.722Z,21.30
2022-07-30T03:06:56.011Z,21.30
2022-07-30T03:09:24.648Z,21.30
2022-07-30T03:11:55.048Z,21.30
2022-07-30T03:14:24.958Z,21.30
2022-07-30T03:17:00.096Z,21.20
2022-07-30T03:19:32.465Z,21.20
2022-07-30T03:22:03.178Z,21.20
2022-07-30T03:24:33.691Z,21.20
2022-07-30T03:27:03.898Z,21.10
2022-07-30T03:29:36.034Z,21.20
2022-07-30T03:32:06.921Z,21.10
2022-07-30T03:34:36.399Z,21.10
2022-07-30T03:37:06.659Z,21.10
2022-07-30T03:39:37.374Z,21.10
2022-07-30T03:42:08.394Z,21.10
2022-07-30T03:44:38.932Z,21.00
2022-07-30T03:47:09.865Z,21.00
2022-07-30T03:49:38.314Z,21.00
2022-07-30T03:52:07.030Z,20.90
2022-07-30T03:54:36.294Z,20.90
2022-07-30T03:57:06.362Z,20.90
2022-07-30T03:59:35.310Z,20.90
2022-07-30T04:02:06.893Z,20.90
2022-07-30T04:04:35.952Z,20.90
2022-07-30T04:07:04.678Z,20.90
2022-07-30T04:09:33.064Z,20.80
2022-07-30T04:12:01.607Z,20.80
2022-07-30T04:14:40.534Z,20.80
2022-07-30T04:17:15.057Z,20.80
2022-07-30T04:19:47.701Z,20.80
2022-07-30T04:22:18.249Z,20.70
2022-07-30T04:24:47.335Z,20.70
2022-07-30T04:27:16.971Z,20.70
2022-07-30T04:29:45.449Z,20.70
2022-07-30T04:32:15.330Z,20.60
2022-07-30T04:34:48.454Z,20.60
2022-07-30T04:37:17.436Z,20.60
2022-07-30T04:39:46.111Z,20.60
2022-07-30T04:42:14.518Z,20.50
2022-07-30T04:44:43.023Z,20.50
2022-07-30T04:47:11.334Z,20.50
2022-07-30T04:49:42.808Z,20.50
2022-07-30T04:52:12.417Z,20.50
2022-07-30T04:54:48.015Z,20.50
2022-07-30T04:57:18.085Z,20.50
2022-07-30T04:59:46.882Z,20.40
2022-07-30T05:02:20.408Z,20.40
2022-07-30T05:04:51.655Z,20.40
2022-07-30T05:07:22.542Z,20.40
2022-07-30T05:09:51.096Z,20.40
2022-07-30T05:12:19.446Z,20.40
2022-07-30T05:14:48.362Z,20.30
2022-07-30T05:17:16.865Z,20.30
2022-07-30T05:19:45.182Z,20.30
2022-07-30T05:22:18.136Z,20.30
2022-07-30T05:24:46.452Z,20.30
2022-07-30T05:27:14.832Z,20.30
2022-07-30T05:29:43.179Z,20.20
2022-07-30T05:32:11.882Z,20.20
2022-07-30T05:34:40.333Z,20.20
2022-07-30T05:37:09.920Z,20.20
2022-07-30T05:39:57.403Z,20.20
2022-07-30T05:42:30.411Z,20.20
2022-07-30T05:45:00.367Z,20.20
2022-07-30T05:47:28.775Z,20.20
2022-07-30T05:49:59.366Z,20.10
2022-07-30T05:52:31.181Z,20.10
2022-07-30T05:55:00.941Z,20.20
2022-07-30T05:57:29.286Z,20.10
2022-07-30T05:59:57.598Z,20.10
2022-07-30T06:02:25.961Z,20.10
2022-07-30T06:04:54.496Z,20.00
2022-07-30T06:07:23.003Z,20.10
2022-07-30T06:09:51.329Z,20.10
2022-07-30T06:12:21.079Z,20.10
2022-07-30T06:14:49.452Z,20.00
2022-07-30T06:17:17.757Z,20.00
2022-07-30T06:19:46.135Z,20.00
2022-07-30T06:22:14.477Z,20.00
2022-07-30T06:24:42.801Z,20.00
2022-07-30T06:27:11.150Z,20.00
2022-07-30T06:29:40.874Z,20.00
2022-07-30T06:32:09.329Z,19.90
2022-07-30T06:34:37.614Z,20.00
2022-07-30T06:37:05.986Z,19.90
2022-07-30T06:39:56.059Z,19.90
2022-07-30T06:42:22.728Z,19.90
2022-07-30T06:44:52.601Z,19.90
2022-07-30T06:47:28.590Z,19.90
2022-07-30T06:49:57.073Z,19.90
2022-07-30T06:52:25.692Z,19.90
2022-07-30T06:54:54.626Z,19.90
2022-07-30T06:57:22.905Z,19.90
2022-07-30T06:59:56.161Z,19.90
2022-07-30T07:02:25.831Z,19.90
2022-07-30T07:04:54.234Z,19.90
2022-07-30T07:07:40.389Z,19.80
2022-07-30T07:10:10.577Z,19.80
2022-07-30T07:12:38.989Z,19.80
2022-07-30T07:15:10.474Z,19.80
2022-07-30T07:17:40.439Z,19.80
2022-07-30T07:20:09.505Z,19.80
2022-07-30T07:22:37.872Z,19.80
2022-07-30T07:25:07.192Z,19.80
2022-07-30T07:27:35.566Z,19.80
2022-07-30T07:30:04.628Z,19.80
2022-07-30T07:32:37.099Z,19.80
2022-07-30T07:35:06.196Z,19.80
2022-07-30T07:37:34.700Z,19.80
2022-07-30T07:40:03.013Z,19.80
2022-07-30T07:42:31.348Z,19.80
2022-07-30T07:44:59.726Z,19.80
2022-07-30T07:47:28.206Z,19.80
2022-07-30T07:49:58.206Z,19.80
2022-07-30T07:52:26.590Z,19.80
2022-07-30T07:54:54.958Z,19.80
2022-07-30T07:57:23.583Z,19.80
2022-07-30T07:59:54.477Z,19.80
2022-07-30T08:02:22.904Z,19.80
2022-07-30T08:04:51.680Z,19.80
2022-07-30T08:07:21.443Z,19.80
2022-07-30T08:09:49.841Z,19.80
2022-07-30T08:12:18.173Z,19.80
2022-07-30T08:14:46.557Z,19.80
2022-07-30T08:17:15.196Z,19.90
2022-07-30T08:19:43.543Z,19.90
2022-07-30T08:22:11.882Z,19.90
2022-07-30T08:24:41.941Z,19.90
2022-07-30T08:27:10.521Z,19.90
2022-07-30T08:29:38.934Z,19.90
2022-07-30T08:32:07.764Z,19.90
2022-07-30T08:34:36.096Z,19.90
2022-07-30T08:37:04.502Z,19.90
2022-07-30T08:39:32.858Z,20.00
2022-07-30T08:42:05.365Z,19.90
2022-07-30T08:44:34.830Z,20.00
2022-07-30T08:47:04.707Z,20.00
2022-07-30T08:49:33.472Z,20.00
2022-07-30T08:52:02.644Z,20.00
2022-07-30T08:54:31.325Z,20.00
2022-07-30T08:57:00.662Z,20.00
2022-07-30T08:59:59.065Z,20.00
2022-07-30T09:02:27.701Z,20.10
2022-07-30T09:04:57.785Z,20.10
2022-07-30T09:07:26.420Z,20.10
2022-07-30T09:09:54.795Z,20.10
2022-07-30T09:12:41.101Z,20.10
2022-07-30T09:15:12.990Z,20.20
2022-07-30T09:17:53.123Z,20.20
2022-07-30T09:20:23.571Z,20.20
2022-07-30T09:22:54.667Z,20.20
2022-07-30T09:25:36.857Z,20.20
2022-07-30T09:28:16.403Z,20.20
2022-07-30T09:30:49.517Z,20.20
2022-07-30T09:33:33.864Z,20.30
2022-07-30T09:36:02.475Z,20.30
2022-07-30T09:38:32.128Z,20.30
2022-07-30T09:41:07.995Z,20.30
2022-07-30T09:43:47.884Z,20.30
2022-07-30T09:46:19.204Z,20.40
2022-07-30T09:48:47.951Z,20.40
2022-07-30T09:51:18.381Z,20.40
2022-07-30T09:53:59.304Z,20.40
2022-07-30T09:56:30.353Z,20.40
2022-07-30T09:58:59.090Z,20.40
2022-07-30T10:01:49.849Z,20.40
2022-07-30T10:04:25.744Z,20.40
2022-07-30T10:06:54.275Z,20.50
2022-07-30T10:09:29.166Z,20.50
2022-07-30T10:11:59.860Z,20.50
2022-07-30T10:14:32.478Z,20.50
2022-07-30T10:17:03.632Z,20.50
2022-07-30T10:19:40.445Z,20.50
2022-07-30T10:22:11.614Z,20.50
2022-07-30T10:24:41.606Z,20.60
2022-07-30T10:27:11.258Z,20.60
2022-07-30T10:29:42.839Z,20.60
2022-07-30T10:32:13.105Z,20.60
2022-07-30T10:34:42.362Z,20.60
2022-07-30T10:37:15.802Z,20.60
2022-07-30T10:39:53.183Z,20.70
2022-07-30T10:42:33.476Z,20.70
2022-07-30T10:45:18.104Z,20.70
2022-07-30T10:47:49.883Z,20.70
2022-07-30T10:50:22.195Z,20.70
2022-07-30T10:52:52.975Z,20.70
2022-07-30T10:55:37.234Z,20.80
2022-07-30T10:58:09.679Z,20.80
2022-07-30T11:01:01.184Z,20.80
2022-07-30T11:03:41.218Z,20.80
2022-07-30T11:06:30.723Z,20.80
2022-07-30T11:08:59.296Z,20.90
2022-07-30T11:12:01.401Z,20.80
2022-07-30T11:14:58.543Z,20.90
2022-07-30T11:17:59.993Z,20.90
2022-07-30T11:20:30.447Z,20.90
2022-07-30T11:23:36.832Z,21.00
2022-07-30T11:26:07.854Z,20.90
2022-07-30T11:28:45.194Z,21.00
2022-07-30T11:31:36.983Z,21.00
2022-07-30T11:34:30.620Z,21.00
2022-07-30T11:37:19.226Z,21.00
2022-07-30T11:40:14.641Z,21.10
2022-07-30T11:42:43.817Z,21.10
2022-07-30T11:45:29.532Z,21.10
2022-07-30T11:48:01.397Z,21.10
2022-07-30T11:50:31.966Z,21.20
2022-07-30T11:53:03.892Z,21.20
2022-07-30T11:55:34.024Z,21.30
2022-07-30T11:58:05.329Z,21.30
2022-07-30T12:00:39.810Z,21.30
2022-07-30T12:03:13.677Z,21.40
2022-07-30T12:05:42.999Z,21.50
2022-07-30T12:08:35.961Z,21.50
2022-07-30T12:11:03.325Z,21.50
2022-07-30T12:13:44.333Z,21.60
2022-07-30T12:16:17.745Z,21.60
2022-07-30T12:18:47.547Z,21.70
2022-07-30T12:21:16.953Z,21.70
2022-07-30T12:23:55.741Z,21.70
2022-07-30T12:26:26.646Z,21.80
2022-07-30T12:28:56.500Z,21.80
2022-07-30T12:31:25.142Z,21.80
2022-07-30T12:33:53.549Z,21.90
2022-07-30T12:36:32.656Z,21.90
2022-07-30T12:39:03.935Z,21.90
2022-07-30T12:41:43.652Z,22.00
2022-07-30T12:44:12.254Z,21.90
2022-07-30T12:46:42.277Z,22.00
2022-07-30T12:49:22.398Z,22.00
2022-07-30T12:52:00.458Z,22.00
2022-07-30T12:54:30.520Z,22.00
2022-07-30T12:57:01.017Z,22.00
2022-07-30T12:59:30.142Z,22.00
2022-07-30T13:02:00.649Z,22.10
2022-07-30T13:04:29.817Z,22.10
2022-07-30T13:07:05.500Z,22.10
2022-07-30T13:09:36.075Z,22.10
2022-07-30T13:12:05.006Z,22.20
2022-07-30T13:14:33.575Z,22.20
2022-07-30T13:17:04.271Z,22.20
2022-07-30T13:19:33.066Z,22.30
2022-07-30T13:22:01.447Z,22.30
2022-07-30T13:24:29.816Z,22.30
2022-07-30T13:26:59.547Z,22.40
2022-07-30T13:29:27.889Z,22.40
2022-07-30T13:31:56.204Z,22.40
2022-07-30T13:34:24.532Z,22.50
2022-07-30T13:36:52.877Z,22.50
2022-07-30T13:39:21.231Z,22.60
2022-07-30T13:41:49.508Z,22.60
2022-07-30T13:44:19.353Z,22.60
2022-07-30T13:46:47.757Z,22.70
2022-07-30T13:49:16.125Z,22.70
2022-07-30T13:51:44.600Z,22.80
2022-07-30T13:54:14.003Z,22.80
2022-07-30T13:56:42.494Z,22.90
2022-07-30T13:59:11.907Z,22.90
2022-07-30T14:01:41.656Z,23.00
2022-07-30T14:04:10.144Z,23.00
2022-07-30T14:06:38.931Z,23.10
2022-07-30T14:09:07.248Z,23.10
2022-07-30T14:11:35.607Z,23.20
2022-07-30T14:14:03.973Z,23.20
2022-07-30T14:16:47.571Z,23.30
2022-07-30T14:19:23.458Z,23.40
2022-07-30T14:21:54.096Z,23.40
2022-07-30T14:24:22.589Z,23.50
2022-07-30T14:26:57.419Z,23.50
2022-07-30T14:29:27.204Z,23.60
2022-07-30T14:31:55.836Z,23.60
2022-07-30T14:34:25.667Z,23.70
2022-07-30T14:36:54.016Z,23.70
2022-07-30T14:39:22.422Z,23.80
2022-07-30T14:41:52.502Z,23.80
2022-07-30T14:44:24.675Z,23.90
2022-07-30T14:46:53.243Z,23.90
2022-07-30T14:49:22.784Z,24.00
2022-07-30T14:51:53.809Z,24.10
2022-07-30T14:54:23.016Z,24.00
2022-07-30T14:56:56.199Z,24.10
2022-07-30T14:59:26.746Z,24.20
2022-07-30T15:01:55.376Z,24.20
2022-07-30T15:04:24.128Z,24.30
2022-07-30T15:06:53.840Z,24.30
2022-07-30T15:09:22.236Z,24.40
2022-07-30T15:12:08.543Z,24.40
2022-07-30T15:14:38.797Z,24.40
2022-07-30T15:17:08.649Z,24.40
2022-07-30T15:19:36.989Z,24.50
2022-07-30T15:22:16.202Z,24.50
2022-07-30T15:24:44.671Z,24.60
2022-07-30T15:27:13.121Z,24.50
2022-07-30T15:29:41.466Z,24.60
2022-07-30T15:32:09.811Z,24.60
2022-07-30T15:34:38.168Z,24.70
2022-07-30T15:37:06.982Z,24.70
2022-07-30T15:39:36.802Z,24.70
2022-07-30T15:42:06.571Z,24.60
2022-07-30T15:44:35.232Z,24.60
2022-07-30T15:47:03.591Z,24.60
2022-07-30T15:49:32.830Z,24.60
2022-07-30T15:52:01.593Z,24.60
2022-07-30T15:54:30.193Z,24.60
2022-07-30T15:57:01.293Z,24.60
2022-07-30T15:59:30.352Z,24.60
2022-07-30T16:01:58.844Z,24.60
2022-07-30T16:04:31.262Z,24.60
2022-07-30T16:07:00.745Z,24.60
2022-07-30T16:09:29.114Z,24.60
2022-07-30T16:11:58.167Z,24.60
2022-07-30T16:14:28.012Z,24.60
2022-07-30T16:16:56.686Z,24.60
2022-07-30T16:19:27.148Z,24.50
2022-07-30T16:21:55.549Z,24.50
2022-07-30T16:24:23.857Z,24.40
2022-07-30T16:26:52.243Z,24.40
2022-07-30T16:29:20.549Z,24.40
2022-07-30T16:31:50.384Z,24.30
2022-07-30T16:34:26.732Z,24.40
2022-07-30T16:36:56.274Z,24.30
2022-07-30T16:39:24.601Z,24.30
2022-07-30T16:41:52.928Z,24.30
2022-07-30T16:44:21.269Z,24.30
2022-07-30T16:46:51.200Z,24.30
2022-07-30T16:49:19.647Z,24.30
2022-07-30T16:51:48.207Z,24.30
2022-07-30T16:54:16.776Z,24.30
2022-07-30T16:56:45.116Z,24.20
2022-07-30T16:59:14.508Z,24.20
2022-07-30T17:01:42.846Z,24.20
2022-07-30T17:04:12.685Z,24.20
2022-07-30T17:06:41.290Z,24.10
2022-07-30T17:09:09.712Z,24.00
2022-07-30T17:11:46.599Z,24.00
2022-07-30T17:14:16.841Z,24.00
2022-07-30T17:16:45.294Z,24.00
2022-07-30T17:19:14.955Z,23.90
2022-07-30T17:21:43.393Z,23.90
2022-07-30T17:24:13.650Z,23.90
2022-07-30T17:26:44.097Z,23.90
2022-07-30T17:29:14.783Z,24.00
2022-07-30T17:31:44.498Z,24.00
2022-07-30T17:34:18.293Z,24.00
2022-07-30T17:36:52.429Z,24.00
2022-07-30T17:40:19.942Z,24.00
2022-07-30T17:42:10.916Z,23.90
2022-07-30T17:44:40.439Z,23.90
2022-07-30T17:47:14.395Z,24.00
2022-07-30T17:49:45.304Z,23.90
2022-07-30T17:52:13.759Z,23.90
2022-07-30T17:54:42.326Z,23.90
2022-07-30T17:57:10.640Z,23.90
2022-07-30T17:59:39.019Z,23.90
2022-07-30T18:02:07.568Z,23.80
2022-07-30T18:04:36.249Z,23.80
2022-07-30T18:07:06.329Z,23.80
2022-07-30T18:09:39.676Z,23.80
2022-07-30T18:12:10.865Z,23.80
2022-07-30T18:14:39.250Z,23.80
2022-07-30T18:17:12.453Z,23.80
2022-07-30T18:19:42.692Z,23.70
2022-07-30T18:22:14.666Z,23.70
2022-07-30T18:24:44.113Z,23.70
2022-07-30T18:27:13.323Z,23.70
2022-07-30T18:29:42.012Z,23.70
2022-07-30T18:32:10.790Z,23.70
2022-07-30T18:34:39.286Z,23.60
2022-07-30T18:37:08.010Z,23.60
2022-07-30T18:39:37.942Z,23.60
2022-07-30T18:42:07.223Z,23.60
2022-07-30T18:44:35.809Z,23.60
2022-07-30T18:47:04.350Z,23.50
2022-07-30T18:49:37.500Z,23.60
2022-07-30T18:52:08.055Z,23.50
2022-07-30T18:54:38.558Z,23.50
2022-07-30T18:57:12.669Z,23.50
2022-07-30T18:59:43.026Z,23.50
2022-07-30T19:02:11.513Z,23.40
2022-07-30T19:04:40.009Z,23.50
2022-07-30T19:07:08.458Z,23.40
2022-07-30T19:09:38.857Z,23.40
2022-07-30T19:12:07.640Z,23.40
2022-07-30T19:14:36.236Z,23.40
2022-07-30T19:17:13.961Z,23.40
2022-07-30T19:19:43.715Z,23.30
2022-07-30T19:22:12.184Z,23.30
2022-07-30T19:24:41.941Z,23.30
2022-07-30T19:27:14.165Z,23.30
2022-07-30T19:29:43.590Z,23.20
2022-07-30T19:32:12.177Z,23.30
2022-07-30T19:34:43.415Z,23.20
2022-07-30T19:37:11.917Z,23.20
2022-07-30T19:40:05.691Z,23.20
2022-07-30T19:42:30.592Z,23.20
2022-07-30T19:44:59.122Z,23.20
2022-07-30T19:47:39.291Z,23.20
2022-07-30T19:50:10.192Z,23.10
2022-07-30T19:52:40.563Z,23.10
2022-07-30T19:55:30.564Z,23.10
2022-07-30T19:57:59.770Z,23.10
2022-07-30T20:00:28.261Z,23.00
2022-07-30T20:02:56.631Z,23.00
2022-07-30T20:05:26.412Z,23.00
2022-07-30T20:07:59.053Z,23.00
2022-07-30T20:10:29.597Z,23.00
2022-07-30T20:12:59.043Z,22.90
2022-07-30T20:15:27.838Z,22.90
2022-07-30T20:17:58.519Z,22.90
2022-07-30T20:20:26.938Z,22.90
2022-07-30T20:22:55.306Z,22.90
2022-07-30T20:25:24.037Z,22.80
2022-07-30T20:27:53.817Z,22.80
2022-07-30T20:30:25.210Z,22.80
2022-07-30T20:32:54.031Z,22.80
2022-07-30T20:35:26.146Z,22.80
2022-07-30T20:37:56.426Z,22.70
2022-07-30T20:40:26.775Z,22.70
2022-07-30T20:42:56.736Z,22.70
2022-07-30T20:45:40.136Z,22.70
2022-07-30T20:48:17.361Z,22.70
2022-07-30T20:50:53.978Z,22.60
2022-07-30T20:53:25.642Z,22.60
2022-07-30T20:56:05.486Z,22.60
2022-07-30T20:58:35.272Z,22.60
2022-07-30T21:01:04.916Z,22.60
2022-07-30T21:03:33.434Z,22.50
2022-07-30T21:06:01.843Z,22.50
2022-07-30T21:08:30.181Z,22.50
2022-07-30T21:11:00.251Z,22.50
2022-07-30T21:13:28.789Z,22.40
2022-07-30T21:16:03.511Z,22.40
2022-07-30T21:18:32.840Z,22.40
2022-07-30T21:21:04.985Z,22.30
2022-07-30T21:23:34.417Z,22.40
2022-07-30T21:26:06.978Z,22.40
2022-07-30T21:28:38.803Z,22.30
2022-07-30T21:31:10.109Z,22.30
2022-07-30T21:33:38.676Z,22.30
2022-07-30T21:36:10.726Z,22.20
2022-07-30T21:38:42.011Z,22.20
2022-07-30T21:44:00.509Z,22.20
2022-07-30T21:46:32.568Z,22.10
2022-07-30T21:49:00.916Z,22.10
2022-07-30T21:51:29.488Z,22.10
2022-07-30T21:54:00.614Z,22.10
2022-07-30T21:56:29.098Z,22.00
2022-07-30T21:58:57.478Z,22.00
2022-07-30T22:01:26.039Z,22.00
2022-07-30T22:04:02.955Z,22.00
2022-07-30T22:06:35.839Z,22.00
2022-07-30T22:09:10.152Z,22.00
2022-07-30T22:11:48.942Z,21.90
2022-07-30T22:14:17.364Z,21.90
2022-07-30T22:16:47.711Z,21.90
2022-07-30T22:19:17.857Z,21.80
2022-07-30T22:21:48.929Z,21.90
2022-07-30T22:24:28.706Z,21.90
2022-07-30T22:27:01.550Z,21.80
2022-07-30T22:29:34.280Z,21.80
2022-07-30T22:32:04.600Z,21.80
2022-07-30T22:34:34.688Z,21.80
2022-07-30T22:37:02.976Z,21.70
2022-07-30T22:39:51.193Z,21.70
2022-07-30T22:42:20.239Z,21.70
2022-07-30T22:44:48.557Z,21.60
2022-07-30T22:47:20.957Z,21.60
2022-07-30T22:49:52.868Z,21.60
2022-07-30T22:52:27.247Z,21.60
2022-07-30T22:57:45.437Z,21.60
2022-07-30T23:00:28.283Z,21.50
2022-07-30T23:02:57.712Z,21.50
2022-07-30T23:05:27.782Z,21.50
2022-07-30T23:07:56.542Z,21.50
2022-07-30T23:10:27.638Z,21.50
2022-07-30T23:12:32.093Z,22.20
2022-07-30T23:12:34.234Z,21.60
2022-07-30T23:12:56.746Z,21.40
2022-07-30T23:15:25.240Z,21.40
2022-07-30T23:17:53.825Z,21.40
2022-07-30T23:20:23.268Z,21.40
2022-07-30T23:22:53.025Z,21.40
2022-07-30T23:25:23.017Z,21.30
2022-07-30T23:27:52.119Z,21.40
2022-07-30T23:30:20.503Z,21.30
2022-07-30T23:32:48.827Z,21.30
2022-07-30T23:35:17.921Z,21.30
2022-07-30T23:37:48.310Z,21.30
2022-07-30T23:40:19.668Z,21.30
2022-07-30T23:42:50.252Z,21.20
2022-07-30T23:45:18.991Z,21.20
2022-07-30T23:47:51.275Z,21.20
2022-07-30T23:50:32.480Z,21.20
2022-07-30T23:53:01.081Z,21.20
2022-07-30T23:55:31.846Z,21.10
2022-07-30T23:58:00.530Z,21.10
